createdAt,value
2023-05-15T00:00:39.658Z,38.70
2023-05-15T00:03:10.112Z,39.83
2023-05-15T00:05:38.195Z,39.25
2023-05-15T00:08:06.701Z,42.35
2023-05-15T00:10:36.146Z,42.53
2023-05-15T00:13:04.126Z,44.72
2023-05-15T00:15:32.669Z,46.83
2023-05-15T00:18:03.145Z,43.17
2023-05-15T00:20:32.619Z,44.45
2023-05-15T00:25:46.289Z,44.35
2023-05-15T00:28:14.614Z,43.73
2023-05-15T00:30:44.135Z,43.00
2023-05-15T00:33:14.022Z,44.63
2023-05-15T00:35:45.359Z,46.22
2023-05-15T00:38:13.897Z,44.10
2023-05-15T00:40:44.347Z,48.78
2023-05-15T00:43:14.309Z,47.63
2023-05-15T00:45:44.011Z,47.20
2023-05-15T00:48:13.872Z,45.88
2023-05-15T00:50:43.869Z,47.17
2023-05-15T00:53:12.783Z,45.17
2023-05-15T00:55:45.950Z,47.00
2023-05-15T00:58:16.254Z,47.15
2023-05-15T01:00:46.673Z,45.63
2023-05-15T01:03:14.930Z,47.72
2023-05-15T01:05:45.268Z,45.47
2023-05-15T01:08:18.368Z,47.85
2023-05-15T01:10:53.076Z,45.15
2023-05-15T01:13:23.761Z,43.70
2023-05-15T01:15:51.872Z,45.92
2023-05-15T01:18:21.427Z,46.33
2023-05-15T01:21:13.660Z,44.10
2023-05-15T01:23:50.962Z,46.40
2023-05-15T01:26:36.750Z,45.90
2023-05-15T01:29:09.399Z,44.25
2023-05-15T01:31:39.618Z,46.38
2023-05-15T01:34:10.576Z,44.30
2023-05-15T01:36:43.917Z,47.30
2023-05-15T01:39:12.713Z,44.40
2023-05-15T01:41:45.093Z,47.60
2023-05-15T01:44:20.096Z,48.00
2023-05-15T01:46:52.235Z,51.03
2023-05-15T01:49:23.363Z,53.85
2023-05-15T01:51:55.420Z,54.17
2023-05-15T01:54:27.460Z,54.85
2023-05-15T01:56:57.690Z,56.83
2023-05-15T01:59:27.973Z,56.03
2023-05-15T02:01:58.032Z,57.88
2023-05-15T02:04:27.950Z,58.38
2023-05-15T02:06:56.846Z,58.78
2023-05-15T02:09:25.334Z,57.90
2023-05-15T02:11:53.848Z,55.05
2023-05-15T02:14:23.308Z,56.17
2023-05-15T02:16:52.966Z,56.25
2023-05-15T02:19:25.010Z,60.25
2023-05-15T02:21:53.453Z,60.08
2023-05-15T02:24:21.507Z,57.10
2023-05-15T02:26:55.441Z,58.97
2023-05-15T02:29:31.791Z,55.55
2023-05-15T02:32:09.384Z,56.30
2023-05-15T02:34:45.432Z,57.17
2023-05-15T02:37:20.540Z,64.72
2023-05-15T02:39:50.709Z,65.18
2023-05-15T02:42:19.762Z,59.92
2023-05-15T02:44:48.258Z,62.47
2023-05-15T02:47:18.469Z,64.25
2023-05-15T02:49:47.069Z,62.95
2023-05-15T02:52:15.932Z,62.60
2023-05-15T02:54:46.047Z,63.38
2023-05-15T02:57:15.554Z,61.15
2023-05-15T02:59:44.673Z,64.30
2023-05-15T03:02:13.811Z,67.55
2023-05-15T03:04:43.832Z,65.50
2023-05-15T03:07:12.266Z,64.65
2023-05-15T03:09:40.584Z,62.05
2023-05-15T03:12:10.139Z,62.88
2023-05-15T03:14:38.211Z,61.55
2023-05-15T03:17:07.212Z,62.90
2023-05-15T03:19:37.147Z,65.97
2023-05-15T03:22:07.172Z,62.67
2023-05-15T03:24:35.666Z,64.38
2023-05-15T03:27:05.376Z,61.58
2023-05-15T03:29:33.630Z,63.83
2023-05-15T03:32:01.692Z,63.88
2023-05-15T03:34:31.300Z,63.78
2023-05-15T03:37:00.194Z,63.20
2023-05-15T03:39:31.191Z,64.32
2023-05-15T03:41:59.670Z,61.90
2023-05-15T03:44:29.828Z,61.58
2023-05-15T03:46:59.441Z,62.30
2023-05-15T03:49:35.706Z,60.10
2023-05-15T03:52:07.464Z,60.25
2023-05-15T03:54:37.531Z,63.70
2023-05-15T03:57:06.433Z,65.40
2023-05-15T03:59:37.501Z,64.35
2023-05-15T04:02:07.073Z,63.38
2023-05-15T04:04:37.754Z,63.00
2023-05-15T04:07:07.075Z,62.05
2023-05-15T04:09:38.685Z,61.20
2023-05-15T04:12:08.037Z,63.67
2023-05-15T04:14:36.751Z,65.78
2023-05-15T04:17:07.290Z,61.60
2023-05-15T04:19:39.859Z,64.13
2023-05-15T04:22:08.988Z,65.22
2023-05-15T04:24:38.613Z,63.90
2023-05-15T04:27:09.787Z,62.35
2023-05-15T04:29:40.178Z,64.05
2023-05-15T04:32:08.652Z,58.53
2023-05-15T04:34:40.869Z,63.67
2023-05-15T04:37:09.377Z,60.83
2023-05-15T04:39:38.940Z,63.05
2023-05-15T04:42:07.742Z,62.33
2023-05-15T04:44:36.313Z,62.72
2023-05-15T04:47:04.928Z,60.45
2023-05-15T04:49:33.580Z,64.25
2023-05-15T04:52:02.256Z,64.20
2023-05-15T04:54:32.891Z,61.55
2023-05-15T04:57:02.588Z,62.85
2023-05-15T04:59:31.575Z,63.20
2023-05-15T05:02:02.465Z,62.00
2023-05-15T05:04:31.815Z,64.38
2023-05-15T05:07:00.123Z,63.78
2023-05-15T05:09:28.413Z,62.85
2023-05-15T05:11:56.421Z,65.78
2023-05-15T05:14:28.645Z,71.93
2023-05-15T05:16:56.638Z,64.65
2023-05-15T05:19:28.043Z,67.40
2023-05-15T05:21:58.329Z,65.53
2023-05-15T05:24:26.828Z,68.40
2023-05-15T05:27:15.568Z,66.18
2023-05-15T05:29:59.330Z,74.32
2023-05-15T05:32:30.254Z,64.70
2023-05-15T05:34:58.771Z,68.32
2023-05-15T05:37:27.445Z,66.35
2023-05-15T05:39:57.910Z,69.40
2023-05-15T05:42:26.929Z,65.25
2023-05-15T05:44:56.418Z,61.50
2023-05-15T05:47:24.483Z,69.03
2023-05-15T05:49:52.706Z,63.53
2023-05-15T05:52:21.040Z,65.28
2023-05-15T05:54:51.192Z,67.63
2023-05-15T05:57:21.981Z,62.25
2023-05-15T05:59:51.805Z,59.33
2023-05-15T06:02:23.366Z,60.55
2023-05-15T06:04:54.307Z,61.20
2023-05-15T06:07:23.392Z,59.47
2023-05-15T06:09:52.122Z,62.08
2023-05-15T06:12:22.832Z,61.08
2023-05-15T06:14:51.550Z,62.60
2023-05-15T06:17:19.950Z,62.15
2023-05-15T06:19:49.384Z,60.17
2023-05-15T06:22:17.775Z,61.90
2023-05-15T06:24:46.088Z,52.67
2023-05-15T06:27:14.378Z,63.17
2023-05-15T06:29:43.120Z,61.55
2023-05-15T06:32:11.876Z,55.83
2023-05-15T06:34:41.815Z,53.42
2023-05-15T06:37:12.755Z,57.97
2023-05-15T06:39:41.268Z,55.30
2023-05-15T06:42:09.481Z,56.63
2023-05-15T06:44:38.366Z,54.80
2023-05-15T06:47:07.467Z,57.67
2023-05-15T06:49:35.614Z,56.80
2023-05-15T06:52:03.671Z,53.38
2023-05-15T06:54:33.527Z,52.35
2023-05-15T06:57:02.219Z,49.67
2023-05-15T06:59:34.976Z,49.45
2023-05-15T07:02:03.674Z,51.78
2023-05-15T07:04:34.703Z,52.08
2023-05-15T07:07:04.289Z,48.05
2023-05-15T07:09:35.335Z,53.00
2023-05-15T07:12:06.270Z,48.03
2023-05-15T07:14:35.374Z,47.47
2023-05-15T07:17:04.205Z,51.38
2023-05-15T07:19:32.353Z,48.83
2023-05-15T07:22:03.181Z,48.28
2023-05-15T07:24:33.589Z,50.00
2023-05-15T07:27:01.946Z,45.70
2023-05-15T07:29:30.326Z,47.30
2023-05-15T07:32:00.210Z,46.63
2023-05-15T07:34:29.739Z,46.25
2023-05-15T07:36:58.049Z,46.90
2023-05-15T07:39:26.675Z,48.42
2023-05-15T07:41:56.757Z,44.50
2023-05-15T07:44:26.989Z,45.28
2023-05-15T07:46:56.892Z,46.97
2023-05-15T07:49:25.021Z,45.22
2023-05-15T07:51:53.081Z,43.08
2023-05-15T07:54:21.178Z,46.15
2023-05-15T07:56:49.457Z,45.08
2023-05-15T07:59:20.366Z,42.60
2023-05-15T08:01:48.870Z,40.42
2023-05-15T08:04:17.907Z,41.95
2023-05-15T08:06:47.288Z,40.67
2023-05-15T08:09:16.078Z,40.03
2023-05-15T08:11:45.323Z,38.90
2023-05-15T08:14:15.891Z,38.70
2023-05-15T08:16:47.203Z,36.30
2023-05-15T08:19:15.809Z,39.72
2023-05-15T08:21:44.311Z,33.75
2023-05-15T08:24:13.994Z,37.83
2023-05-15T08:26:42.112Z,37.45
2023-05-15T08:29:11.760Z,38.08
2023-05-15T08:31:41.381Z,38.15
2023-05-15T08:34:12.613Z,38.50
2023-05-15T08:36:41.693Z,38.05
2023-05-15T08:39:09.855Z,35.88
2023-05-15T08:41:44.288Z,34.75
2023-05-15T08:44:13.277Z,36.72
2023-05-15T08:46:42.244Z,35.17
2023-05-15T08:49:17.636Z,36.13
2023-05-15T08:51:46.638Z,35.85
2023-05-15T08:54:14.989Z,33.83
2023-05-15T08:56:43.921Z,32.88
2023-05-15T08:59:15.040Z,34.63
2023-05-15T09:01:45.140Z,32.75
2023-05-15T09:04:15.123Z,34.78
2023-05-15T09:06:45.631Z,28.98
2023-05-15T09:09:14.339Z,30.35
2023-05-15T09:11:47.430Z,28.35
2023-05-15T09:14:19.926Z,28.65
2023-05-15T09:16:53.332Z,30.13
2023-05-15T09:19:23.948Z,30.17
2023-05-15T09:21:52.119Z,29.60
2023-05-15T09:24:23.438Z,28.27
2023-05-15T09:27:03.778Z,29.75
2023-05-15T09:29:34.456Z,29.73
2023-05-15T09:32:04.831Z,27.98
2023-05-15T09:34:37.224Z,28.55
2023-05-15T09:37:09.367Z,35.13
2023-05-15T09:39:41.991Z,31.08
2023-05-15T09:42:13.113Z,29.45
2023-05-15T09:44:43.721Z,32.55
2023-05-15T09:47:12.560Z,29.00
2023-05-15T09:49:46.222Z,28.73
2023-05-15T09:52:14.833Z,30.23
2023-05-15T09:54:48.182Z,28.98
2023-05-15T09:57:21.967Z,28.45
2023-05-15T09:59:50.399Z,29.17
2023-05-15T10:02:28.297Z,29.50
2023-05-15T10:05:01.854Z,30.13
2023-05-15T10:09:58.212Z,30.67
2023-05-15T10:12:26.754Z,28.88
2023-05-15T10:14:58.389Z,32.15
2023-05-15T10:17:27.181Z,27.57
2023-05-15T10:20:01.862Z,29.05
2023-05-15T10:22:31.077Z,27.85
2023-05-15T10:25:02.281Z,27.65
2023-05-15T10:27:31.072Z,25.25
2023-05-15T10:30:02.885Z,26.27
2023-05-15T10:32:31.345Z,25.98
2023-05-15T10:35:08.236Z,27.40
2023-05-15T10:37:40.080Z,24.02
2023-05-15T10:40:14.125Z,22.42
2023-05-15T10:42:44.715Z,25.38
2023-05-15T10:45:15.835Z,24.10
2023-05-15T10:47:45.053Z,23.25
2023-05-15T10:50:15.390Z,25.42
2023-05-15T10:52:44.428Z,25.95
2023-05-15T10:55:17.667Z,30.05
2023-05-15T10:57:48.860Z,25.88
2023-05-15T11:00:27.654Z,28.20
2023-05-15T11:02:58.979Z,24.17
2023-05-15T11:05:30.680Z,22.60
2023-05-15T11:08:29.922Z,23.08
2023-05-15T11:10:58.669Z,24.13
2023-05-15T11:13:27.324Z,25.52
2023-05-15T11:15:57.187Z,23.10
2023-05-15T11:18:25.785Z,23.25
2023-05-15T11:21:17.106Z,24.60
2023-05-15T11:23:49.601Z,23.42
2023-05-15T11:28:47.291Z,23.13
2023-05-15T11:31:16.306Z,22.75
2023-05-15T11:33:46.361Z,24.73
2023-05-15T11:36:19.820Z,25.17
2023-05-15T11:38:52.099Z,20.23
2023-05-15T11:41:27.639Z,19.48
2023-05-15T11:43:56.443Z,17.65
2023-05-15T11:46:26.227Z,18.65
2023-05-15T11:48:54.433Z,21.75
2023-05-15T11:51:32.405Z,22.02
2023-05-15T11:54:02.080Z,21.45
2023-05-15T11:56:30.625Z,22.15
2023-05-15T11:59:00.308Z,18.98
2023-05-15T12:01:30.395Z,17.02
2023-05-15T12:03:58.648Z,13.60
2023-05-15T12:06:30.142Z,15.05
2023-05-15T12:09:00.206Z,13.05
2023-05-15T12:11:30.111Z,12.65
2023-05-15T12:13:59.521Z,13.80
2023-05-15T12:16:28.476Z,14.95
2023-05-15T12:18:58.367Z,16.25
2023-05-15T12:21:30.775Z,17.33
2023-05-15T12:26:45.079Z,15.45
2023-05-15T12:29:16.818Z,16.52
2023-05-15T12:31:47.968Z,19.50
2023-05-15T12:34:16.426Z,22.27
2023-05-15T12:36:47.382Z,18.55
2023-05-15T12:39:17.571Z,18.25
2023-05-15T12:41:47.716Z,25.13
2023-05-15T12:44:19.785Z,25.42
2023-05-15T12:46:48.380Z,26.67
2023-05-15T12:49:24.880Z,16.13
2023-05-15T12:51:54.880Z,10.55
2023-05-15T12:54:25.634Z,14.20
2023-05-15T12:56:54.702Z,12.40
2023-05-15T12:59:23.744Z,15.32
2023-05-15T13:01:52.602Z,10.98
2023-05-15T13:04:21.036Z,10.18
2023-05-15T13:06:49.890Z,9.45
2023-05-15T13:09:27.400Z,13.85
2023-05-15T13:11:56.956Z,16.10
2023-05-15T13:14:29.647Z,13.05
2023-05-15T13:17:03.233Z,12.35
2023-05-15T13:19:32.471Z,10.52
2023-05-15T13:22:01.780Z,13.10
2023-05-15T13:24:32.742Z,21.30
2023-05-15T13:27:02.584Z,28.58
2023-05-15T13:29:35.041Z,25.65
2023-05-15T13:32:13.753Z,26.42
2023-05-15T13:34:44.771Z,25.90
2023-05-15T13:37:19.887Z,24.25
2023-05-15T13:39:49.694Z,28.05
2023-05-15T13:42:22.229Z,28.00
2023-05-15T13:44:50.944Z,26.30
2023-05-15T13:47:19.142Z,25.30
2023-05-15T13:49:50.728Z,26.48
2023-05-15T13:52:20.070Z,25.08
2023-05-15T13:54:51.648Z,22.80
2023-05-15T13:57:20.553Z,27.93
2023-05-15T13:59:48.955Z,27.65
2023-05-15T14:02:18.947Z,29.00
2023-05-15T14:04:49.649Z,25.25
2023-05-15T14:07:19.777Z,26.52
2023-05-15T14:09:51.252Z,27.27
2023-05-15T14:12:19.793Z,26.08
2023-05-15T14:14:49.319Z,28.10
2023-05-15T14:17:19.378Z,25.75
2023-05-15T14:19:52.082Z,26.05
2023-05-15T14:22:20.385Z,28.77
2023-05-15T14:24:51.163Z,27.33
2023-05-15T14:27:19.213Z,24.48
2023-05-15T14:29:48.868Z,24.52
2023-05-15T14:32:17.448Z,24.92
2023-05-15T14:34:45.880Z,24.25
2023-05-15T14:37:16.134Z,24.70
2023-05-15T14:39:45.868Z,24.30
2023-05-15T14:42:17.102Z,24.58
2023-05-15T14:44:45.694Z,27.77
2023-05-15T14:47:25.435Z,25.83
2023-05-15T14:49:53.709Z,28.63
2023-05-15T14:52:22.046Z,29.90
2023-05-15T14:55:04.993Z,27.10
2023-05-15T14:57:38.884Z,29.20
2023-05-15T15:00:09.456Z,28.02
2023-05-15T15:02:37.829Z,29.08
2023-05-15T15:05:08.807Z,30.42
2023-05-15T15:07:59.297Z,28.60
2023-05-15T15:10:28.454Z,26.58
2023-05-15T15:12:58.156Z,27.67
2023-05-15T15:15:26.852Z,30.33
2023-05-15T15:17:57.681Z,27.88
2023-05-15T15:20:29.229Z,28.80
2023-05-15T15:22:57.875Z,26.40
2023-05-15T15:25:27.342Z,28.30
2023-05-15T15:27:56.782Z,26.45
2023-05-15T15:30:25.127Z,24.60
2023-05-15T15:32:54.614Z,28.05
2023-05-15T15:35:25.044Z,31.20
2023-05-15T15:37:54.145Z,31.67
2023-05-15T15:40:24.885Z,31.58
2023-05-15T15:42:54.411Z,33.38
2023-05-15T15:45:26.316Z,33.30
2023-05-15T15:47:54.745Z,31.42
2023-05-15T15:50:22.834Z,30.00
2023-05-15T15:52:51.125Z,30.08
2023-05-15T15:55:20.210Z,32.40
2023-05-15T15:57:48.748Z,32.05
2023-05-15T16:00:18.141Z,30.08
2023-05-15T16:02:52.841Z,30.30
2023-05-15T16:05:23.884Z,29.98
2023-05-15T16:07:53.050Z,30.08
2023-05-15T16:10:22.296Z,31.33
2023-05-15T16:12:52.140Z,28.92
2023-05-15T16:15:23.379Z,29.02
2023-05-15T16:17:55.164Z,30.20
2023-05-15T16:20:24.927Z,32.45
2023-05-15T16:22:55.165Z,33.60
2023-05-15T16:25:25.155Z,35.03
2023-05-15T16:27:53.195Z,29.70
2023-05-15T16:30:21.801Z,31.48
2023-05-15T16:32:50.824Z,31.38
2023-05-15T16:35:24.907Z,32.17
2023-05-15T16:37:54.225Z,32.17
2023-05-15T16:40:23.580Z,38.83
2023-05-15T16:42:51.792Z,34.85
2023-05-15T16:45:21.398Z,35.72
2023-05-15T16:47:49.515Z,35.42
2023-05-15T16:50:17.808Z,35.80
2023-05-15T16:52:50.395Z,38.53
2023-05-15T16:55:21.068Z,38.22
2023-05-15T16:57:51.732Z,41.63
2023-05-15T17:00:23.219Z,39.10
2023-05-15T17:02:52.239Z,35.17
2023-05-15T17:05:21.300Z,37.33
2023-05-15T17:07:53.019Z,43.63
2023-05-15T17:10:22.210Z,46.00
2023-05-15T17:12:51.269Z,50.03
2023-05-15T17:15:20.952Z,48.22
2023-05-15T17:17:49.352Z,50.03
2023-05-15T17:20:20.130Z,52.50
2023-05-15T17:22:49.272Z,53.15
2023-05-15T17:25:19.696Z,58.17
2023-05-15T17:27:50.791Z,49.33
2023-05-15T17:30:19.265Z,46.92
2023-05-15T17:32:48.200Z,44.28
2023-05-15T17:35:19.128Z,41.13
2023-05-15T17:37:48.002Z,41.03
2023-05-15T17:42:50.256Z,43.45
2023-05-15T17:45:18.908Z,46.10
2023-05-15T17:47:49.046Z,43.85
2023-05-15T17:50:18.171Z,46.45
2023-05-15T17:52:46.664Z,47.78
2023-05-15T17:55:15.683Z,50.72
2023-05-15T17:57:45.214Z,54.08
2023-05-15T18:00:19.701Z,46.65
2023-05-15T18:02:48.302Z,34.50
2023-05-15T18:05:17.134Z,34.40
2023-05-15T18:07:48.358Z,31.75
2023-05-15T18:10:16.749Z,31.38
2023-05-15T18:12:47.551Z,28.38
2023-05-15T18:15:15.868Z,25.75
2023-05-15T18:17:44.371Z,25.88
2023-05-15T18:20:16.103Z,25.17
2023-05-15T18:22:45.890Z,25.00
2023-05-15T18:25:14.078Z,24.98
2023-05-15T18:27:45.950Z,22.73
2023-05-15T18:30:15.696Z,22.05
2023-05-15T18:32:43.782Z,22.33
2023-05-15T18:35:12.847Z,20.60
2023-05-15T18:37:41.214Z,20.35
2023-05-15T18:40:12.817Z,19.90
2023-05-15T18:42:41.139Z,19.38
2023-05-15T18:45:10.277Z,21.80
2023-05-15T18:47:40.063Z,20.23
2023-05-15T18:50:13.269Z,19.88
2023-05-15T18:52:41.603Z,19.00
2023-05-15T18:55:11.802Z,17.73
2023-05-15T18:57:42.149Z,17.65
2023-05-15T19:00:14.122Z,18.75
2023-05-15T19:02:47.973Z,17.38
2023-05-15T19:05:17.343Z,17.10
2023-05-15T19:07:47.144Z,16.08
2023-05-15T19:10:17.774Z,16.95
2023-05-15T19:12:49.421Z,16.92
2023-05-15T19:15:20.257Z,16.70
2023-05-15T19:17:49.671Z,16.83
2023-05-15T19:20:18.346Z,15.85
2023-05-15T19:22:46.776Z,13.93
2023-05-15T19:25:15.474Z,13.48
2023-05-15T19:27:43.791Z,13.25
2023-05-15T19:30:12.682Z,12.35
2023-05-15T19:32:41.831Z,11.20
2023-05-15T19:35:13.153Z,12.90
2023-05-15T19:37:41.863Z,11.13
2023-05-15T19:40:10.774Z,11.60
2023-05-15T19:42:39.190Z,10.55
2023-05-15T19:45:08.732Z,10.88
2023-05-15T19:47:37.578Z,11.60
2023-05-15T19:50:07.361Z,10.85
2023-05-15T19:52:38.773Z,10.55
2023-05-15T19:55:08.345Z,11.55
2023-05-15T19:57:40.008Z,12.55
2023-05-15T20:00:10.315Z,11.43
2023-05-15T20:02:41.082Z,11.38
2023-05-15T20:05:10.385Z,11.82
2023-05-15T20:07:40.504Z,11.68
2023-05-15T20:10:13.587Z,12.10
2023-05-15T20:12:41.934Z,12.55
2023-05-15T20:15:10.705Z,12.43
2023-05-15T20:17:39.173Z,11.10
2023-05-15T20:20:10.923Z,12.05
2023-05-15T20:22:45.038Z,11.00
2023-05-15T20:25:13.411Z,10.15
2023-05-15T20:27:43.135Z,10.30
2023-05-15T20:30:14.791Z,8.60
2023-05-15T20:32:43.232Z,8.90
2023-05-15T20:35:13.008Z,8.73
2023-05-15T20:37:51.490Z,7.30
2023-05-15T20:40:22.901Z,7.72
2023-05-15T20:42:51.240Z,7.90
2023-05-15T20:45:20.010Z,7.63
2023-05-15T20:47:48.144Z,7.43
2023-05-15T20:50:17.684Z,7.40
2023-05-15T20:52:47.680Z,7.65
2023-05-15T20:55:20.563Z,7.35
2023-05-15T20:57:50.296Z,8.15
2023-05-15T21:00:20.102Z,8.18
2023-05-15T21:02:49.715Z,8.20
2023-05-15T21:05:18.004Z,7.55
2023-05-15T21:07:51.034Z,7.63
2023-05-15T21:10:19.003Z,7.80
2023-05-15T21:12:47.632Z,8.02
2023-05-15T21:15:16.319Z,7.88
2023-05-15T21:17:45.949Z,7.47
2023-05-15T21:20:14.880Z,8.77
2023-05-15T21:22:44.024Z,9.38
2023-05-15T21:25:15.754Z,8.77
2023-05-15T21:27:44.075Z,17.10
2023-05-15T21:30:13.768Z,10.98
2023-05-15T21:32:45.154Z,10.57
2023-05-15T21:35:16.726Z,10.77
2023-05-15T21:37:46.292Z,12.43
2023-05-15T21:40:16.458Z,10.40
2023-05-15T21:42:44.867Z,11.43
2023-05-15T21:45:14.194Z,12.10
2023-05-15T21:47:42.387Z,11.48
2023-05-15T21:50:11.128Z,12.25
2023-05-15T21:52:39.647Z,10.32
2023-05-15T21:55:09.022Z,10.35
2023-05-15T21:57:40.440Z,10.25
2023-05-15T22:00:11.240Z,11.50
2023-05-15T22:02:44.283Z,11.40
2023-05-15T22:05:17.029Z,11.45
2023-05-15T22:10:16.403Z,12.68
2023-05-15T22:12:46.872Z,11.02
2023-05-15T22:15:16.638Z,11.20
2023-05-15T22:17:45.275Z,12.50
2023-05-15T22:20:15.003Z,12.00
2023-05-15T22:22:43.701Z,12.60
2023-05-15T22:25:12.190Z,11.52
2023-05-15T22:27:44.449Z,11.82
2023-05-15T22:30:15.819Z,12.23
2023-05-15T22:32:44.282Z,11.20
2023-05-15T22:35:13.147Z,11.98
2023-05-15T22:37:42.166Z,11.43
2023-05-15T22:40:11.663Z,11.52
2023-05-15T22:42:41.085Z,11.68
2023-05-15T22:45:10.623Z,12.48
2023-05-15T22:47:41.582Z,12.27
2023-05-15T22:50:12.049Z,11.32
2023-05-15T22:52:41.797Z,11.30
2023-05-15T22:55:12.622Z,10.63
2023-05-15T22:57:40.906Z,11.77
2023-05-15T23:00:09.998Z,11.90
2023-05-15T23:02:39.304Z,12.68
2023-05-15T23:05:09.419Z,11.90
2023-05-15T23:07:37.705Z,12.48
2023-05-15T23:10:06.653Z,12.95
2023-05-15T23:12:36.354Z,11.98
2023-05-15T23:15:05.707Z,12.35
2023-05-15T23:17:33.981Z,13.20
2023-05-15T23:20:02.677Z,11.90
2023-05-15T23:22:32.363Z,11.63
2023-05-15T23:25:02.509Z,12.75
2023-05-15T23:27:30.743Z,11.27
2023-05-15T23:29:58.988Z,12.70
2023-05-15T23:32:27.156Z,11.93
2023-05-15T23:34:56.903Z,12.30
2023-05-15T23:37:25.539Z,11.32
2023-05-15T23:39:55.466Z,11.40
2023-05-15T23:42:27.911Z,10.85
2023-05-15T23:44:57.217Z,11.88
2023-05-15T23:47:25.826Z,11.40
2023-05-15T23:49:54.105Z,11.38
2023-05-15T23:52:22.588Z,12.10
2023-05-15T23:54:51.421Z,10.98
2023-05-15T23:57:23.915Z,10.77
